createdAt,value
2023-05-22T00:00:41.998Z,15.37
2023-05-22T00:03:27.318Z,15.33
2023-05-22T00:06:10.315Z,15.31
2023-05-22T00:12:10.240Z,15.24
2023-05-22T00:14:46.797Z,15.23
2023-05-22T00:17:39.929Z,15.21
2023-05-22T00:20:42.141Z,15.18
2023-05-22T00:23:41.603Z,15.15
2023-05-22T00:26:10.768Z,15.15
2023-05-22T00:28:51.746Z,15.15
2023-05-22T00:32:12.190Z,15.14
2023-05-22T00:35:08.604Z,15.12
2023-05-22T00:38:13.060Z,15.07
2023-05-22T00:40:58.172Z,15.03
2023-05-22T00:44:02.487Z,14.91
2023-05-22T00:46:47.467Z,14.89
2023-05-22T00:49:37.238Z,14.88
2023-05-22T00:52:17.517Z,14.86
2023-05-22T00:55:11.359Z,14.84
2023-05-22T00:57:46.699Z,14.83
2023-05-22T01:00:59.922Z,14.85
2023-05-22T01:03:49.042Z,14.83
2023-05-22T01:06:32.612Z,14.83
2023-05-22T01:09:04.570Z,14.83
2023-05-22T01:11:47.176Z,14.81
2023-05-22T01:14:48.698Z,14.78
2023-05-22T01:17:40.835Z,14.71
2023-05-22T01:21:10.417Z,14.65
2023-05-22T01:23:55.030Z,14.58
2023-05-22T01:26:58.092Z,14.53
2023-05-22T01:30:31.760Z,14.49
2023-05-22T01:33:29.483Z,14.44
2023-05-22T01:36:31.053Z,14.43
2023-05-22T01:39:11.737Z,14.43
2023-05-22T01:41:44.783Z,14.44
2023-05-22T01:44:30.941Z,14.43
2023-05-22T01:47:05.674Z,14.37
2023-05-22T01:49:44.832Z,14.34
2023-05-22T01:52:34.951Z,14.28
2023-05-22T01:55:20.826Z,14.21
2023-05-22T01:58:10.364Z,14.18
2023-05-22T02:00:47.147Z,14.15
2023-05-22T02:03:29.335Z,14.14
2023-05-22T02:06:15.268Z,14.12
2023-05-22T02:08:59.646Z,14.10
2023-05-22T02:11:38.259Z,14.07
2023-05-22T02:14:15.652Z,14.03
2023-05-22T02:16:55.916Z,13.99
2023-05-22T02:19:32.610Z,13.93
2023-05-22T02:22:14.317Z,13.89
2023-05-22T02:24:53.030Z,13.86
2023-05-22T02:27:31.398Z,13.83
2023-05-22T02:30:25.152Z,13.82
2023-05-22T02:33:07.728Z,13.81
2023-05-22T02:35:47.941Z,13.82
2023-05-22T02:38:17.152Z,13.82
2023-05-22T02:41:03.899Z,13.81
2023-05-22T02:43:42.122Z,13.79
2023-05-22T02:46:13.826Z,13.79
2023-05-22T02:48:47.582Z,13.77
2023-05-22T02:51:16.122Z,13.66
2023-05-22T02:53:49.806Z,13.67
2023-05-22T02:56:35.359Z,13.68
2023-05-22T02:59:13.110Z,13.71
2023-05-22T03:01:48.101Z,13.77
2023-05-22T03:04:29.777Z,13.79
2023-05-22T03:07:09.766Z,13.82
2023-05-22T03:09:48.957Z,13.83
2023-05-22T03:12:32.646Z,13.84
2023-05-22T03:15:08.707Z,13.86
2023-05-22T03:17:51.486Z,13.89
2023-05-22T03:20:24.243Z,13.94
2023-05-22T03:22:54.207Z,14.00
2023-05-22T03:25:26.389Z,14.04
2023-05-22T03:27:58.381Z,14.09
2023-05-22T03:30:35.384Z,14.14
2023-05-22T03:33:12.470Z,14.15
2023-05-22T03:35:44.413Z,14.17
2023-05-22T03:38:17.957Z,14.18
2023-05-22T03:40:55.046Z,14.18
2023-05-22T03:43:25.363Z,14.16
2023-05-22T03:46:03.180Z,14.15
2023-05-22T03:48:39.908Z,14.10
2023-05-22T03:51:12.011Z,14.14
2023-05-22T03:53:56.518Z,14.20
2023-05-22T03:56:28.384Z,14.25
2023-05-22T03:58:57.508Z,14.30
2023-05-22T04:01:31.261Z,14.31
2023-05-22T04:04:13.207Z,14.34
2023-05-22T04:06:56.901Z,14.35
2023-05-22T04:09:38.214Z,14.37
2023-05-22T04:12:11.623Z,14.38
2023-05-22T04:14:53.598Z,14.40
2023-05-22T04:17:33.320Z,14.42
2023-05-22T04:20:16.357Z,14.48
2023-05-22T04:22:53.598Z,14.56
2023-05-22T04:25:26.709Z,14.64
2023-05-22T04:28:14.074Z,14.70
2023-05-22T04:31:01.919Z,14.75
2023-05-22T04:34:07.499Z,14.77
2023-05-22T04:37:11.645Z,14.82
2023-05-22T04:40:07.313Z,14.94
2023-05-22T04:43:04.441Z,15.07
2023-05-22T04:46:30.095Z,15.15
2023-05-22T04:49:17.379Z,15.30
2023-05-22T04:51:58.296Z,15.51
2023-05-22T04:55:30.253Z,15.78
2023-05-22T04:58:08.258Z,16.13
2023-05-22T05:01:04.791Z,16.51
2023-05-22T05:03:54.634Z,16.98
2023-05-22T05:06:27.367Z,17.50
2023-05-22T05:08:58.238Z,18.04
2023-05-22T05:11:53.901Z,18.62
2023-05-22T05:14:30.579Z,19.11
2023-05-22T05:17:26.080Z,19.64
2023-05-22T05:19:58.507Z,20.21
2023-05-22T05:23:14.216Z,20.62
2023-05-22T05:25:48.418Z,20.90
2023-05-22T05:28:24.480Z,21.17
2023-05-22T05:31:16.969Z,21.36
2023-05-22T05:34:30.961Z,21.60
2023-05-22T05:37:19.258Z,21.93
2023-05-22T05:39:56.862Z,22.08
2023-05-22T05:42:50.274Z,22.07
2023-05-22T05:45:46.829Z,22.12
2023-05-22T05:48:27.774Z,22.21
2023-05-22T05:51:13.562Z,22.34
2023-05-22T05:54:13.093Z,22.64
2023-05-22T05:56:52.655Z,22.95
2023-05-22T05:59:33.296Z,23.16
2023-05-22T06:02:34.364Z,23.39
2023-05-22T06:05:16.981Z,23.69
2023-05-22T06:08:13.401Z,23.97
2023-05-22T06:13:31.976Z,24.23
2023-05-22T06:14:08.543Z,24.26
2023-05-22T06:16:55.680Z,24.47
2023-05-22T06:19:31.262Z,24.85
2023-05-22T06:22:30.076Z,25.00
2023-05-22T06:25:02.802Z,25.17
2023-05-22T06:27:51.580Z,25.52
2023-05-22T06:33:10.959Z,26.10
2023-05-22T06:36:04.176Z,26.48
2023-05-22T06:38:42.665Z,26.64
2023-05-22T06:41:37.608Z,26.76
2023-05-22T06:44:22.093Z,26.80
2023-05-22T06:47:12.257Z,26.70
2023-05-22T06:50:00.009Z,26.41
2023-05-22T06:53:06.800Z,26.03
2023-05-22T06:56:01.035Z,25.80
2023-05-22T06:59:05.360Z,25.64
2023-05-22T07:02:22.422Z,25.53
2023-05-22T07:05:34.491Z,25.73
2023-05-22T07:08:11.667Z,26.20
2023-05-22T07:10:51.647Z,26.63
2023-05-22T07:13:54.238Z,26.77
2023-05-22T07:16:35.564Z,26.77
2023-05-22T07:19:15.364Z,26.82
2023-05-22T07:25:29.912Z,26.95
2023-05-22T07:28:11.225Z,26.70
2023-05-22T07:31:07.231Z,26.47
2023-05-22T07:33:57.530Z,26.32
2023-05-22T07:36:55.200Z,26.19
2023-05-22T07:39:32.859Z,26.30
2023-05-22T07:42:04.780Z,26.45
2023-05-22T07:44:41.731Z,26.53
2023-05-22T07:47:13.938Z,26.64
2023-05-22T07:49:56.347Z,26.81
2023-05-22T07:52:41.140Z,26.62
2023-05-22T07:55:21.800Z,26.61
2023-05-22T07:58:03.968Z,26.80
2023-05-22T08:00:42.310Z,27.04
2023-05-22T08:03:24.838Z,27.30
2023-05-22T08:06:09.334Z,27.46
2023-05-22T08:08:55.076Z,27.54
2023-05-22T08:11:40.179Z,27.55
2023-05-22T08:14:12.487Z,27.53
2023-05-22T08:16:46.768Z,27.54
2023-05-22T08:19:30.155Z,27.43
2023-05-22T08:22:08.950Z,27.35
2023-05-22T08:24:41.295Z,27.29
2023-05-22T08:27:18.256Z,27.36
2023-05-22T08:29:59.213Z,27.41
2023-05-22T08:32:43.728Z,27.45
2023-05-22T08:35:31.317Z,27.60
2023-05-22T08:38:11.859Z,27.64
2023-05-22T08:41:01.167Z,27.71
2023-05-22T08:43:31.865Z,27.74
2023-05-22T08:46:17.022Z,27.79
2023-05-22T08:49:05.187Z,27.78
2023-05-22T08:51:42.466Z,27.81
2023-05-22T08:54:14.301Z,27.90
2023-05-22T08:56:56.906Z,28.04
2023-05-22T08:59:36.637Z,28.03
2023-05-22T09:02:06.801Z,27.86
2023-05-22T09:04:35.934Z,27.82
2023-05-22T09:07:08.337Z,27.68
2023-05-22T09:09:41.756Z,27.57
2023-05-22T09:13:06.332Z,27.60
2023-05-22T09:15:46.036Z,27.68
2023-05-22T09:18:16.244Z,27.85
2023-05-22T09:20:48.662Z,27.77
2023-05-22T09:23:41.476Z,27.78
2023-05-22T09:26:22.678Z,27.71
2023-05-22T09:29:20.413Z,27.80
2023-05-22T09:32:19.481Z,27.58
2023-05-22T09:35:32.028Z,27.16
2023-05-22T09:38:11.433Z,27.22
2023-05-22T09:40:42.249Z,27.25
2023-05-22T09:47:23.683Z,27.42
2023-05-22T09:50:08.510Z,27.54
2023-05-22T09:52:46.525Z,27.64
2023-05-22T09:55:17.212Z,27.83
2023-05-22T09:58:04.413Z,27.99
2023-05-22T10:00:36.329Z,28.11
2023-05-22T10:03:15.073Z,28.09
2023-05-22T10:05:53.941Z,28.00
2023-05-22T10:08:37.118Z,27.99
2023-05-22T10:11:10.991Z,27.98
2023-05-22T10:13:42.426Z,27.87
2023-05-22T10:16:16.505Z,27.81
2023-05-22T10:18:49.231Z,27.78
2023-05-22T10:21:20.914Z,27.75
2023-05-22T10:23:52.073Z,27.75
2023-05-22T10:26:22.635Z,27.71
2023-05-22T10:29:10.781Z,27.47
2023-05-22T10:32:11.212Z,27.20
2023-05-22T10:35:40.706Z,26.89
2023-05-22T10:38:46.117Z,26.74
2023-05-22T10:41:28.217Z,26.88
2023-05-22T10:43:58.076Z,26.88
2023-05-22T10:46:40.426Z,26.62
2023-05-22T10:49:23.060Z,26.32
2023-05-22T10:51:58.220Z,25.98
2023-05-22T10:54:53.353Z,25.67
2023-05-22T10:57:24.734Z,25.42
2023-05-22T11:00:13.171Z,25.35
2023-05-22T11:02:49.404Z,25.25
2023-05-22T11:05:25.917Z,25.10
2023-05-22T11:08:31.850Z,24.96
2023-05-22T11:11:12.504Z,24.75
2023-05-22T11:14:16.905Z,24.48
2023-05-22T11:17:32.614Z,24.49
2023-05-22T11:20:54.386Z,24.34
2023-05-22T11:23:43.331Z,24.17
2023-05-22T11:26:25.544Z,24.27
2023-05-22T11:29:21.035Z,24.31
2023-05-22T11:31:50.954Z,24.27
2023-05-22T11:34:21.851Z,24.18
2023-05-22T11:36:53.290Z,24.23
2023-05-22T11:39:28.143Z,24.31
2023-05-22T11:41:57.914Z,24.28
2023-05-22T11:44:31.747Z,24.28
2023-05-22T11:47:13.573Z,24.31
2023-05-22T11:49:49.756Z,24.23
2023-05-22T11:52:19.863Z,24.19
2023-05-22T11:54:51.648Z,24.31
2023-05-22T11:57:25.633Z,24.34
2023-05-22T11:59:55.789Z,24.22
2023-05-22T12:02:28.193Z,24.16
2023-05-22T12:05:04.251Z,24.15
2023-05-22T12:07:33.964Z,24.10
2023-05-22T12:10:07.527Z,24.11
2023-05-22T12:12:39.953Z,24.21
2023-05-22T12:15:09.931Z,24.28
2023-05-22T12:17:40.718Z,24.27
2023-05-22T12:20:14.301Z,24.26
2023-05-22T12:23:02.276Z,24.25
2023-05-22T12:25:39.253Z,24.18
2023-05-22T12:28:12.840Z,24.14
2023-05-22T12:30:46.870Z,24.21
2023-05-22T12:33:21.568Z,24.27
2023-05-22T12:36:00.056Z,24.26
2023-05-22T12:38:33.440Z,24.26
2023-05-22T12:41:03.664Z,24.35
2023-05-22T12:43:35.023Z,24.40
2023-05-22T12:46:09.778Z,24.44
2023-05-22T12:48:39.037Z,24.42
2023-05-22T12:51:09.418Z,24.34
2023-05-22T12:53:40.885Z,24.30
2023-05-22T12:56:09.464Z,24.28
2023-05-22T12:58:38.621Z,24.21
2023-05-22T13:01:09.687Z,24.25
2023-05-22T13:03:43.785Z,24.26
2023-05-22T13:06:22.575Z,24.28
2023-05-22T13:08:52.493Z,24.29
2023-05-22T13:11:23.133Z,24.27
2023-05-22T13:13:52.495Z,24.24
2023-05-22T13:16:21.537Z,24.20
2023-05-22T13:18:52.780Z,24.19
2023-05-22T13:21:26.790Z,24.17
2023-05-22T13:24:00.578Z,24.12
2023-05-22T13:26:31.535Z,24.12
2023-05-22T13:29:02.016Z,24.15
2023-05-22T13:31:38.056Z,24.16
2023-05-22T13:34:08.191Z,24.12
2023-05-22T13:36:37.372Z,24.07
2023-05-22T13:39:07.002Z,24.02
2023-05-22T13:41:39.179Z,24.04
2023-05-22T13:44:11.960Z,24.05
2023-05-22T13:46:41.339Z,24.08
2023-05-22T13:49:10.390Z,24.12
2023-05-22T13:51:39.598Z,24.10
2023-05-22T13:54:11.111Z,24.11
2023-05-22T13:56:41.263Z,24.08
2023-05-22T13:59:12.783Z,24.09
2023-05-22T14:01:42.534Z,24.03
2023-05-22T14:04:13.367Z,23.93
2023-05-22T14:06:43.938Z,23.87
2023-05-22T14:09:13.541Z,23.89
2023-05-22T14:11:52.774Z,23.90
2023-05-22T14:14:28.813Z,23.91
2023-05-22T14:17:04.802Z,23.83
2023-05-22T14:19:41.037Z,23.78
2023-05-22T14:22:14.942Z,23.73
2023-05-22T14:24:50.790Z,23.72
2023-05-22T14:27:28.842Z,23.69
2023-05-22T14:29:59.481Z,23.72
2023-05-22T14:32:33.264Z,23.77
2023-05-22T14:35:04.307Z,23.75
2023-05-22T14:41:54.266Z,23.75
2023-05-22T14:44:26.775Z,23.73
2023-05-22T14:47:05.486Z,23.72
2023-05-22T14:49:35.219Z,23.74
2023-05-22T14:52:16.599Z,23.78
2023-05-22T14:55:15.842Z,23.78
2023-05-22T14:57:47.862Z,23.73
2023-05-22T15:00:32.604Z,23.71
2023-05-22T15:03:05.129Z,23.66
2023-05-22T15:06:00.125Z,23.64
2023-05-22T15:08:32.573Z,23.65
2023-05-22T15:11:04.436Z,23.68
2023-05-22T15:13:38.241Z,23.70
2023-05-22T15:16:15.515Z,23.67
2023-05-22T15:19:29.545Z,23.62
2023-05-22T15:22:18.220Z,23.59
2023-05-22T15:25:11.966Z,23.58
2023-05-22T15:28:04.177Z,23.50
2023-05-22T15:30:50.699Z,23.56
2023-05-22T15:33:21.371Z,23.64
2023-05-22T15:35:59.918Z,23.69
2023-05-22T15:38:33.508Z,23.69
2023-05-22T15:41:09.687Z,23.67
2023-05-22T15:43:49.890Z,23.61
2023-05-22T15:46:29.299Z,23.57
2023-05-22T15:48:58.896Z,23.55
2023-05-22T15:51:32.891Z,23.53
2023-05-22T15:54:14.581Z,23.43
2023-05-22T15:56:50.635Z,23.41
2023-05-22T15:59:39.965Z,23.43
2023-05-22T16:02:28.502Z,23.40
2023-05-22T16:05:00.415Z,23.39
2023-05-22T16:07:34.024Z,23.40
2023-05-22T16:10:33.560Z,23.40
2023-05-22T16:13:46.647Z,23.32
2023-05-22T16:17:00.817Z,23.27
2023-05-22T16:19:48.600Z,23.25
2023-05-22T16:22:44.261Z,23.26
2023-05-22T16:25:27.950Z,23.26
2023-05-22T16:28:40.827Z,23.23
2023-05-22T16:31:38.925Z,23.22
2023-05-22T16:34:18.438Z,23.22
2023-05-22T16:36:54.609Z,23.20
2023-05-22T16:39:36.545Z,23.18
2023-05-22T16:42:10.147Z,23.15
2023-05-22T16:44:53.891Z,23.11
2023-05-22T16:47:29.871Z,23.06
2023-05-22T16:50:22.787Z,23.03
2023-05-22T16:53:26.443Z,22.99
2023-05-22T16:56:35.506Z,22.92
2023-05-22T16:59:12.779Z,22.82
2023-05-22T17:02:04.547Z,22.80
2023-05-22T17:05:19.002Z,22.79
2023-05-22T17:08:07.144Z,22.75
2023-05-22T17:10:55.648Z,22.74
2023-05-22T17:13:50.658Z,22.72
2023-05-22T17:16:31.075Z,22.65
2023-05-22T17:19:21.465Z,22.62
2023-05-22T17:22:46.372Z,22.56
2023-05-22T17:26:35.181Z,22.51
2023-05-22T17:29:47.569Z,22.38
2023-05-22T17:32:43.677Z,22.32
2023-05-22T17:35:13.433Z,22.28
2023-05-22T17:37:49.887Z,22.25
2023-05-22T17:40:43.810Z,22.21
2023-05-22T17:43:23.576Z,22.15
2023-05-22T17:46:03.652Z,22.05
2023-05-22T17:48:39.531Z,21.96
2023-05-22T17:51:09.876Z,21.92
2023-05-22T17:53:43.268Z,21.88
2023-05-22T17:56:14.504Z,21.83
2023-05-22T17:58:43.718Z,21.78
2023-05-22T18:01:47.999Z,21.67
2023-05-22T18:04:35.354Z,21.50
2023-05-22T18:07:09.849Z,21.45
2023-05-22T18:10:38.774Z,21.38
2023-05-22T18:14:41.299Z,21.27
2023-05-22T18:20:41.243Z,21.09
2023-05-22T18:23:40.791Z,21.05
2023-05-22T18:26:21.152Z,20.99
2023-05-22T18:29:09.975Z,20.94
2023-05-22T18:32:17.364Z,20.89
2023-05-22T18:35:02.538Z,20.80
2023-05-22T18:38:16.943Z,20.71
2023-05-22T18:41:45.170Z,20.60
2023-05-22T18:44:38.113Z,20.50
2023-05-22T18:51:39.593Z,20.30
2023-05-22T18:54:16.964Z,20.24
2023-05-22T18:57:45.764Z,20.19
2023-05-22T19:00:39.517Z,20.03
2023-05-22T19:06:37.294Z,19.87
2023-05-22T19:09:30.356Z,19.81
2023-05-22T19:16:47.766Z,19.62
2023-05-22T19:19:40.162Z,19.52
2023-05-22T19:22:18.812Z,19.46
2023-05-22T19:25:35.256Z,19.41
2023-05-22T19:28:08.725Z,19.29
2023-05-22T19:35:30.320Z,19.10
2023-05-22T19:39:35.540Z,19.02
2023-05-22T19:42:20.581Z,18.92
2023-05-22T19:45:53.465Z,18.90
2023-05-22T19:49:34.767Z,18.78
2023-05-22T20:00:44.183Z,18.50
2023-05-22T20:03:38.173Z,18.45
2023-05-22T20:06:32.823Z,18.42
2023-05-22T20:09:30.214Z,18.38
2023-05-22T20:12:14.592Z,18.35
2023-05-22T20:14:56.270Z,18.30
2023-05-22T20:17:41.315Z,18.26
2023-05-22T20:20:45.193Z,18.20
2023-05-22T20:24:41.150Z,18.11
2023-05-22T20:27:58.487Z,17.98
2023-05-22T20:30:50.472Z,17.94
2023-05-22T20:33:57.607Z,17.91
2023-05-22T20:36:43.711Z,17.86
2023-05-22T20:39:47.528Z,17.81
2023-05-22T20:42:35.127Z,17.75
2023-05-22T20:46:06.919Z,17.69
2023-05-22T20:48:50.454Z,17.58
2023-05-22T20:51:40.531Z,17.46
2023-05-22T20:54:45.049Z,17.41
2023-05-22T20:57:51.871Z,17.37
2023-05-22T21:01:10.791Z,17.30
2023-05-22T21:04:03.917Z,17.26
2023-05-22T21:06:53.004Z,17.22
2023-05-22T21:09:57.254Z,17.19
2023-05-22T21:12:58.797Z,17.13
2023-05-22T21:19:06.936Z,17.01
2023-05-22T21:21:58.040Z,16.93
2023-05-22T21:24:34.960Z,16.91
2023-05-22T21:27:23.110Z,16.88
2023-05-22T21:30:01.584Z,16.83
2023-05-22T21:32:50.393Z,16.78
2023-05-22T21:35:29.963Z,16.74
2023-05-22T21:38:27.857Z,16.69
2023-05-22T21:41:05.680Z,16.53
2023-05-22T21:44:01.540Z,16.51
2023-05-22T21:47:04.911Z,16.47
2023-05-22T21:49:50.910Z,16.44
2023-05-22T21:53:05.201Z,16.37
2023-05-22T21:56:29.334Z,16.30
2023-05-22T22:03:05.417Z,16.21
2023-05-22T22:06:14.246Z,16.14
2023-05-22T22:09:15.215Z,16.07
2023-05-22T22:11:58.876Z,15.99
2023-05-22T22:14:49.058Z,15.90
2023-05-22T22:18:00.737Z,15.85
2023-05-22T22:21:10.253Z,15.80
2023-05-22T22:24:19.066Z,15.77
2023-05-22T22:27:40.072Z,15.74
2023-05-22T22:30:24.494Z,15.72
2023-05-22T22:33:38.988Z,15.70
2023-05-22T22:36:56.468Z,15.64
2023-05-22T22:39:39.077Z,15.58
2023-05-22T22:42:25.542Z,15.53
2023-05-22T22:45:07.914Z,15.48
2023-05-22T22:48:13.810Z,15.46
2023-05-22T22:51:38.684Z,15.39
2023-05-22T22:54:30.197Z,15.35
2023-05-22T22:57:38.897Z,15.31
2023-05-22T23:00:20.439Z,15.27
2023-05-22T23:03:32.540Z,15.17
2023-05-22T23:06:17.189Z,15.15
2023-05-22T23:09:17.864Z,15.13
2023-05-22T23:12:31.729Z,15.11
2023-05-22T23:15:37.906Z,15.06
2023-05-22T23:18:28.891Z,15.05
2023-05-22T23:21:31.482Z,15.01
2023-05-22T23:24:13.272Z,15.01
2023-05-22T23:27:06.530Z,15.01
2023-05-22T23:30:14.109Z,14.97
2023-05-22T23:33:16.494Z,14.93
2023-05-22T23:36:06.886Z,14.91
2023-05-22T23:38:47.466Z,14.88
2023-05-22T23:41:33.644Z,14.88
2023-05-22T23:44:34.578Z,14.87
2023-05-22T23:47:13.752Z,14.85
2023-05-22T23:49:59.647Z,14.84
2023-05-22T23:53:01.565Z,14.84
2023-05-22T23:56:26.969Z,14.82
2023-05-22T23:59:20.784Z,14.79
